sensor_id;sensor_type;location;lat;lon;timestamp;pressure;altitude;pressure_sealevel;temperature;humidity
29169;BME280;16219;42.864;23.360;2023-06-26T00:01:39;95625.03;;;19.92;100.00
29169;BME280;16219;42.864;23.360;2023-06-26T00:04:06;95611.63;;;19.85;100.00
29169;BME280;16219;42.864;23.360;2023-06-26T00:06:33;95629.25;;;19.93;100.00
29169;BME280;16219;42.864;23.360;2023-06-26T00:09:01;95633.81;;;19.89;100.00
29169;BME280;16219;42.864;23.360;2023-06-26T00:11:28;95628.03;;;19.80;100.00
29169;BME280;16219;42.864;23.360;2023-06-26T00:14:00;95618.81;;;19.74;100.00
29169;BME280;16219;42.864;23.360;2023-06-26T00:16:27;95619.56;;;19.71;100.00
29169;BME280;16219;42.864;23.360;2023-06-26T00:18:54;95625.31;;;19.73;100.00
29169;BME280;16219;42.864;23.360;2023-06-26T00:21:21;95614.97;;;19.75;100.00
29169;BME280;16219;42.864;23.360;2023-06-26T00:23:48;95608.47;;;19.72;100.00
29169;BME280;16219;42.864;23.360;2023-06-26T00:26:15;95611.53;;;19.71;100.00
29169;BME280;16219;42.864;23.360;2023-06-26T00:28:42;95618.81;;;19.78;100.00
29169;BME280;16219;42.864;23.360;2023-06-26T00:31:10;95612.31;;;19.75;100.00
29169;BME280;16219;42.864;23.360;2023-06-26T00:33:37;95608.38;;;19.58;100.00
29169;BME280;16219;42.864;23.360;2023-06-26T00:36:04;95602.19;;;19.51;100.00
29169;BME280;16219;42.864;23.360;2023-06-26T00:38:31;95608.38;;;19.58;100.00
29169;BME280;16219;42.864;23.360;2023-06-26T00:40:58;95607.66;;;19.65;100.00
29169;BME280;16219;42.864;23.360;2023-06-26T00:43:25;95550.44;;;19.25;100.00
29169;BME280;16219;42.864;23.360;2023-06-26T00:45:52;95600.78;;;19.64;100.00
29169;BME280;16219;42.864;23.360;2023-06-26T00:48:21;95595.44;;;19.67;100.00
29169;BME280;16219;42.864;23.360;2023-06-26T00:50:50;95593.16;;;19.69;100.00
29169;BME280;16219;42.864;23.360;2023-06-26T00:53:18;95577.50;;;19.75;100.00
29169;BME280;16219;42.864;23.360;2023-06-26T00:55:45;95576.34;;;19.69;100.00
29169;BME280;16219;42.864;23.360;2023-06-26T00:58:13;95582.53;;;19.80;100.00
29169;BME280;16219;42.864;23.360;2023-06-26T01:00:39;95594.75;;;19.81;100.00
29169;BME280;16219;42.864;23.360;2023-06-26T01:03:07;95594.41;;;19.86;100.00
29169;BME280;16219;42.864;23.360;2023-06-26T01:05:35;95600.16;;;19.88;100.00
29169;BME280;16219;42.864;23.360;2023-06-26T01:08:04;95597.03;;;19.79;100.00
29169;BME280;16219;42.864;23.360;2023-06-26T01:10:31;95590.13;;;19.71;100.00
29169;BME280;16219;42.864;23.360;2023-06-26T01:12:59;95589.34;;;19.67;100.00
29169;BME280;16219;42.864;23.360;2023-06-26T01:15:26;95565.59;;;19.62;100.00
29169;BME280;16219;42.864;23.360;2023-06-26T01:17:53;95584.03;;;19.78;100.00
29169;BME280;16219;42.864;23.360;2023-06-26T01:20:30;95583.25;;;19.77;100.00
29169;BME280;16219;42.864;23.360;2023-06-26T01:23:05;95578.59;;;19.63;100.00
29169;BME280;16219;42.864;23.360;2023-06-26T01:25:40;95579.31;;;19.60;100.00
29169;BME280;16219;42.864;23.360;2023-06-26T01:28:12;95580.16;;;19.68;100.00
29169;BME280;16219;42.864;23.360;2023-06-26T01:30:43;95578.19;;;19.61;100.00
29169;BME280;16219;42.864;23.360;2023-06-26T01:33:11;95563.53;;;19.44;100.00
29169;BME280;16219;42.864;23.360;2023-06-26T01:35:38;95567.06;;;19.56;100.00
29169;BME280;16219;42.864;23.360;2023-06-26T01:38:14;95565.63;;;19.69;100.00
29169;BME280;16219;42.864;23.360;2023-06-26T01:40:42;95561.06;;;19.73;100.00
29169;BME280;16219;42.864;23.360;2023-06-26T01:43:29;95564.91;;;19.76;100.00
29169;BME280;16219;42.864;23.360;2023-06-26T01:46:01;95561.06;;;19.73;100.00
29169;BME280;16219;42.864;23.360;2023-06-26T01:48:33;95553.41;;;19.68;100.00
29169;BME280;16219;42.864;23.360;2023-06-26T01:51:01;95551.50;;;19.72;100.00
29169;BME280;16219;42.864;23.360;2023-06-26T01:53:33;95562.13;;;19.61;100.00
29169;BME280;16219;42.864;23.360;2023-06-26T01:56:07;95548.25;;;19.41;100.00
29169;BME280;16219;42.864;23.360;2023-06-26T01:58:39;95544.44;;;19.49;100.00
29169;BME280;16219;42.864;23.360;2023-06-26T02:01:07;95559.81;;;19.60;100.00
29169;BME280;16219;42.864;23.360;2023-06-26T02:03:35;95557.56;;;19.62;100.00
29169;BME280;16219;42.864;23.360;2023-06-26T02:06:02;95550.75;;;19.71;100.00
29169;BME280;16219;42.864;23.360;2023-06-26T02:08:29;95564.09;;;19.68;100.00
29169;BME280;16219;42.864;23.360;2023-06-26T02:10:56;95563.34;;;19.75;100.00
29169;BME280;16219;42.864;23.360;2023-06-26T02:13:23;95569.47;;;19.71;100.00
29169;BME280;16219;42.864;23.360;2023-06-26T02:15:52;95569.06;;;19.69;100.00
29169;BME280;16219;42.864;23.360;2023-06-26T02:18:19;95561.06;;;19.73;100.00
29169;BME280;16219;42.864;23.360;2023-06-26T02:20:47;95569.47;;;19.75;100.00
29169;BME280;16219;42.864;23.360;2023-06-26T02:23:14;95562.25;;;19.76;100.00
29169;BME280;16219;42.864;23.360;2023-06-26T02:25:41;95566.03;;;19.71;100.00
29169;BME280;16219;42.864;23.360;2023-06-26T02:28:09;95559.50;;;19.65;100.00
29169;BME280;16219;42.864;23.360;2023-06-26T02:30:36;95557.09;;;19.53;100.00
29169;BME280;16219;42.864;23.360;2023-06-26T02:33:04;95566.00;;;19.67;100.00
29169;BME280;16219;42.864;23.360;2023-06-26T02:35:31;95567.13;;;19.66;100.00
29169;BME280;16219;42.864;23.360;2023-06-26T02:37:59;95562.78;;;19.47;100.00
29169;BME280;16219;42.864;23.360;2023-06-26T02:40:26;95558.56;;;19.43;100.00
29169;BME280;16219;42.864;23.360;2023-06-26T02:42:53;95565.56;;;19.58;100.00
29169;BME280;16219;42.864;23.360;2023-06-26T02:45:21;95563.22;;;19.53;100.00
29169;BME280;16219;42.864;23.360;2023-06-26T02:47:48;95560.94;;;19.55;100.00
29169;BME280;16219;42.864;23.360;2023-06-26T02:50:16;95562.72;;;19.33;100.00
29169;BME280;16219;42.864;23.360;2023-06-26T02:53:02;95553.09;;;19.25;100.00
29169;BME280;16219;42.864;23.360;2023-06-26T02:55:29;95559.28;;;19.36;100.00
29169;BME280;16219;42.864;23.360;2023-06-26T02:57:57;95560.03;;;19.37;100.00
29169;BME280;16219;42.864;23.360;2023-06-26T03:00:24;95567.22;;;19.22;100.00
29169;BME280;16219;42.864;23.360;2023-06-26T03:02:53;95565.72;;;19.28;100.00
29169;BME280;16219;42.864;23.360;2023-06-26T03:05:23;95559.28;;;19.33;100.00
29169;BME280;16219;42.864;23.360;2023-06-26T03:07:51;95559.97;;;19.26;100.00
29169;BME280;16219;42.864;23.360;2023-06-26T03:10:18;95571.53;;;19.37;100.00
29169;BME280;16219;42.864;23.360;2023-06-26T03:12:45;95574.16;;;19.30;100.00
29169;BME280;16219;42.864;23.360;2023-06-26T03:15:13;95573.78;;;19.32;100.00
29169;BME280;16219;42.864;23.360;2023-06-26T03:17:40;95553.50;;;19.27;100.00
29169;BME280;16219;42.864;23.360;2023-06-26T03:20:11;95556.91;;;19.24;100.00
29169;BME280;16219;42.864;23.360;2023-06-26T03:22:59;95565.78;;;19.35;100.00
29169;BME280;16219;42.864;23.360;2023-06-26T03:25:27;95569.25;;;19.39;100.00
29169;BME280;16219;42.864;23.360;2023-06-26T03:28:08;95569.28;;;19.46;100.00
29169;BME280;16219;42.864;23.360;2023-06-26T03:30:35;95570.84;;;19.51;100.00
29169;BME280;16219;42.864;23.360;2023-06-26T03:33:02;95571.66;;;19.55;100.00
29169;BME280;16219;42.864;23.360;2023-06-26T03:35:30;95572.78;;;19.58;100.00
29169;BME280;16219;42.864;23.360;2023-06-26T03:38:01;95569.81;;;19.63;100.00
29169;BME280;16219;42.864;23.360;2023-06-26T03:40:28;95573.94;;;19.57;100.00
29169;BME280;16219;42.864;23.360;2023-06-26T03:42:55;95530.97;;;19.32;100.00
29169;BME280;16219;42.864;23.360;2023-06-26T03:45:24;95563.84;;;19.32;100.00
29169;BME280;16219;42.864;23.360;2023-06-26T03:47:51;95569.28;;;19.43;100.00
29169;BME280;16219;42.864;23.360;2023-06-26T03:50:18;95556.59;;;19.36;100.00
29169;BME280;16219;42.864;23.360;2023-06-26T03:52:46;95583.50;;;19.58;100.00
29169;BME280;16219;42.864;23.360;2023-06-26T03:55:15;95588.53;;;19.63;100.00
29169;BME280;16219;42.864;23.360;2023-06-26T03:57:44;95579.22;;;19.49;100.00
29169;BME280;16219;42.864;23.360;2023-06-26T04:00:14;95579.63;;;19.48;100.00
29169;BME280;16219;42.864;23.360;2023-06-26T04:02:41;95581.56;;;19.51;100.00
29169;BME280;16219;42.864;23.360;2023-06-26T04:05:10;95540.13;;;19.27;100.00
29169;BME280;16219;42.864;23.360;2023-06-26T04:07:37;95546.34;;;19.42;100.00
29169;BME280;16219;42.864;23.360;2023-06-26T04:10:07;95584.34;;;19.65;100.00
29169;BME280;16219;42.864;23.360;2023-06-26T04:12:36;95573.88;;;19.49;100.00
29169;BME280;16219;42.864;23.360;2023-06-26T04:15:04;95587.22;;;19.42;100.00
29169;BME280;16219;42.864;23.360;2023-06-26T04:17:31;95584.91;;;19.37;100.00
29169;BME280;16219;42.864;23.360;2023-06-26T04:19:58;95565.00;;;19.35;100.00
29169;BME280;16219;42.864;23.360;2023-06-26T04:22:25;95573.06;;;19.38;100.00
29169;BME280;16219;42.864;23.360;2023-06-26T04:24:52;95581.09;;;19.38;100.00
29169;BME280;16219;42.864;23.360;2023-06-26T04:27:20;95581.78;;;19.32;100.00
29169;BME280;16219;42.864;23.360;2023-06-26T04:29:49;95554.53;;;19.12;100.00
29169;BME280;16219;42.864;23.360;2023-06-26T04:32:16;95577.97;;;19.29;100.00
29169;BME280;16219;42.864;23.360;2023-06-26T04:34:43;95583.66;;;19.28;100.00
29169;BME280;16219;42.864;23.360;2023-06-26T04:37:10;95584.19;;;19.47;100.00
29169;BME280;16219;42.864;23.360;2023-06-26T04:39:42;95558.56;;;19.43;100.00
29169;BME280;16219;42.864;23.360;2023-06-26T04:42:09;95590.13;;;19.71;100.00
29169;BME280;16219;42.864;23.360;2023-06-26T04:44:37;95589.41;;;19.81;100.00
29169;BME280;16219;42.864;23.360;2023-06-26T04:47:08;95572.06;;;19.61;100.00
29169;BME280;16219;42.864;23.360;2023-06-26T04:49:35;95596.25;;;19.75;100.00
29169;BME280;16219;42.864;23.360;2023-06-26T04:52:02;95595.50;;;19.78;100.00
29169;BME280;16219;42.864;23.360;2023-06-26T04:54:29;95590.97;;;19.86;100.00
29169;BME280;16219;42.864;23.360;2023-06-26T04:56:56;95606.28;;;19.89;100.00
29169;BME280;16219;42.864;23.360;2023-06-26T04:59:25;95609.31;;;19.87;100.00
29169;BME280;16219;42.864;23.360;2023-06-26T05:01:52;95602.47;;;19.93;100.00
29169;BME280;16219;42.864;23.360;2023-06-26T05:04:20;95609.75;;;19.93;100.00
29169;BME280;16219;42.864;23.360;2023-06-26T05:06:48;95594.00;;;19.81;100.00
29169;BME280;16219;42.864;23.360;2023-06-26T05:09:15;95583.19;;;19.66;100.00
29169;BME280;16219;42.864;23.360;2023-06-26T05:11:42;95593.53;;;19.68;100.00
29169;BME280;16219;42.864;23.360;2023-06-26T05:14:09;95607.03;;;19.86;100.00
29169;BME280;16219;42.864;23.360;2023-06-26T05:16:36;95608.56;;;19.90;100.00
29169;BME280;16219;42.864;23.360;2023-06-26T05:19:04;95604.00;;;19.94;100.00
29169;BME280;16219;42.864;23.360;2023-06-26T05:21:33;95612.47;;;20.04;100.00
29169;BME280;16219;42.864;23.360;2023-06-26T05:24:01;95614.78;;;20.05;100.00
29169;BME280;16219;42.864;23.360;2023-06-26T05:26:29;95613.66;;;20.13;100.00
29169;BME280;16219;42.864;23.360;2023-06-26T05:28:57;95608.63;;;20.05;100.00
29169;BME280;16219;42.864;23.360;2023-06-26T05:31:25;95611.78;;;20.21;100.00
29169;BME280;16219;42.864;23.360;2023-06-26T05:33:53;95602.59;;;20.18;100.00
29169;BME280;16219;42.864;23.360;2023-06-26T05:36:23;95616.75;;;20.26;100.00
29169;BME280;16219;42.864;23.360;2023-06-26T05:38:53;95593.78;;;20.14;100.00
29169;BME280;16219;42.864;23.360;2023-06-26T05:41:23;95620.25;;;20.37;100.00
29169;BME280;16219;42.864;23.360;2023-06-26T05:43:50;95624.13;;;20.47;100.00
29169;BME280;16219;42.864;23.360;2023-06-26T05:46:20;95614.28;;;20.69;100.00
29169;BME280;16219;42.864;23.360;2023-06-26T05:48:47;95599.34;;;20.75;100.00
29169;BME280;16219;42.864;23.360;2023-06-26T05:51:14;95620.06;;;21.00;100.00
29169;BME280;16219;42.864;23.360;2023-06-26T05:53:42;95627.75;;;21.12;100.00
29169;BME280;16219;42.864;23.360;2023-06-26T05:56:11;95627.75;;;21.15;100.00
29169;BME280;16219;42.864;23.360;2023-06-26T05:58:40;95625.06;;;21.19;100.00
29169;BME280;16219;42.864;23.360;2023-06-26T06:01:07;95628.91;;;21.21;100.00
29169;BME280;16219;42.864;23.360;2023-06-26T06:03:34;95624.31;;;21.40;100.00
29169;BME280;16219;42.864;23.360;2023-06-26T06:06:01;95630.44;;;21.62;100.00
29169;BME280;16219;42.864;23.360;2023-06-26T06:08:28;95631.97;;;21.84;100.00
29169;BME280;16219;42.864;23.360;2023-06-26T06:10:55;95631.16;;;21.98;100.00
29169;BME280;16219;42.864;23.360;2023-06-26T06:13:24;95628.81;;;22.11;100.00
29169;BME280;16219;42.864;23.360;2023-06-26T06:15:51;95636.50;;;22.12;100.00
29169;BME280;16219;42.864;23.360;2023-06-26T06:18:18;95625.38;;;22.07;100.00
29169;BME280;16219;42.864;23.360;2023-06-26T06:20:45;95625.78;;;22.05;100.00
29169;BME280;16219;42.864;23.360;2023-06-26T06:23:12;95622.69;;;22.07;100.00
29169;BME280;16219;42.864;23.360;2023-06-26T06:25:39;95620.78;;;22.18;100.00
29169;BME280;16219;42.864;23.360;2023-06-26T06:28:06;95625.25;;;22.50;100.00
29169;BME280;16219;42.864;23.360;2023-06-26T06:30:35;95620.06;;;22.84;100.00
29169;BME280;16219;42.864;23.360;2023-06-26T06:33:02;95616.78;;;23.21;100.00
29169;BME280;16219;42.864;23.360;2023-06-26T06:35:29;95616.03;;;23.17;100.00
29169;BME280;16219;42.864;23.360;2023-06-26T06:37:56;95614.38;;;23.34;100.00
29169;BME280;16219;42.864;23.360;2023-06-26T06:40:23;95612.19;;;23.66;100.00
29169;BME280;16219;42.864;23.360;2023-06-26T06:42:51;95623.66;;;24.12;100.00
29169;BME280;16219;42.864;23.360;2023-06-26T06:45:18;95602.16;;;24.42;100.00
29169;BME280;16219;42.864;23.360;2023-06-26T06:47:47;95614.75;;;24.80;100.00
29169;BME280;16219;42.864;23.360;2023-06-26T06:50:14;95546.13;;;24.54;100.00
29169;BME280;16219;42.864;23.360;2023-06-26T06:52:43;95613.34;;;24.99;100.00
29169;BME280;16219;42.864;23.360;2023-06-26T06:55:10;95617.19;;;24.98;100.00
29169;BME280;16219;42.864;23.360;2023-06-26T06:57:38;95619.03;;;24.77;100.00
29169;BME280;16219;42.864;23.360;2023-06-26T07:00:06;95619.94;;;24.67;100.00
29169;BME280;16219;42.864;23.360;2023-06-26T07:02:34;95617.88;;;24.48;100.00
29169;BME280;16219;42.864;23.360;2023-06-26T07:05:03;95603.81;;;24.29;100.00
29169;BME280;16219;42.864;23.360;2023-06-26T07:07:32;95614.53;;;24.36;100.00
29169;BME280;16219;42.864;23.360;2023-06-26T07:10:00;95609.28;;;24.26;100.00
29169;BME280;16219;42.864;23.360;2023-06-26T07:12:27;95606.34;;;24.13;100.00
29169;BME280;16219;42.864;23.360;2023-06-26T07:14:55;95613.22;;;24.17;100.00
29169;BME280;16219;42.864;23.360;2023-06-26T07:17:22;95597.13;;;24.44;100.00
29169;BME280;16219;42.864;23.360;2023-06-26T07:19:50;95608.47;;;24.59;100.00
29169;BME280;16219;42.864;23.360;2023-06-26T07:22:18;95611.72;;;24.78;100.00
29169;BME280;16219;42.864;23.360;2023-06-26T07:24:46;95589.59;;;24.59;100.00
29169;BME280;16219;42.864;23.360;2023-06-26T07:27:14;95591.63;;;24.52;100.00
29169;BME280;16219;42.864;23.360;2023-06-26T07:29:41;95604.75;;;24.50;100.00
29169;BME280;16219;42.864;23.360;2023-06-26T07:32:09;95602.59;;;24.37;100.00
29169;BME280;16219;42.864;23.360;2023-06-26T07:34:37;95602.94;;;24.70;100.00
29169;BME280;16219;42.864;23.360;2023-06-26T07:37:04;95603.25;;;25.03;100.00
29169;BME280;16219;42.864;23.360;2023-06-26T07:39:33;95605.91;;;25.33;100.00
29169;BME280;16219;42.864;23.360;2023-06-26T07:42:00;95599.59;;;25.40;100.00
29169;BME280;16219;42.864;23.360;2023-06-26T07:44:27;95604.13;;;25.47;100.00
29169;BME280;16219;42.864;23.360;2023-06-26T07:46:54;95603.31;;;25.50;100.00
29169;BME280;16219;42.864;23.360;2023-06-26T07:49:21;95599.81;;;25.73;100.00
29169;BME280;16219;42.864;23.360;2023-06-26T07:51:48;95604.69;;;26.05;100.00
29169;BME280;16219;42.864;23.360;2023-06-26T07:54:16;95606.13;;;26.49;100.00
29169;BME280;16219;42.864;23.360;2023-06-26T07:56:55;95612.47;;;26.79;100.00
29169;BME280;16219;42.864;23.360;2023-06-26T07:59:24;95612.03;;;26.64;100.00
29169;BME280;16219;42.864;23.360;2023-06-26T08:01:52;95597.81;;;26.60;100.00
29169;BME280;16219;42.864;23.360;2023-06-26T08:04:21;95613.81;;;26.31;100.00
29169;BME280;16219;42.864;23.360;2023-06-26T08:06:50;95613.13;;;26.07;100.00
29169;BME280;16219;42.864;23.360;2023-06-26T08:09:19;95605.56;;;25.98;100.00
29169;BME280;16219;42.864;23.360;2023-06-26T08:11:47;95605.00;;;25.87;100.00
29169;BME280;16219;42.864;23.360;2023-06-26T08:14:16;95607.16;;;25.72;100.00
29169;BME280;16219;42.864;23.360;2023-06-26T08:16:44;95598.63;;;25.54;100.00
29169;BME280;16219;42.864;23.360;2023-06-26T08:19:12;95588.75;;;25.67;100.00
29169;BME280;16219;42.864;23.360;2023-06-26T08:21:39;95597.31;;;25.85;100.00
29169;BME280;16219;42.864;23.360;2023-06-26T08:24:07;95595.94;;;25.97;100.00
29169;BME280;16219;42.864;23.360;2023-06-26T08:26:34;95589.47;;;25.91;100.00
29169;BME280;16219;42.864;23.360;2023-06-26T08:29:03;95596.00;;;25.93;100.00
29169;BME280;16219;42.864;23.360;2023-06-26T08:31:35;95596.09;;;25.66;100.00
29169;BME280;16219;42.864;23.360;2023-06-26T08:34:03;95594.84;;;25.48;100.00
29169;BME280;16219;42.864;23.360;2023-06-26T08:36:31;95603.53;;;25.35;100.00
29169;BME280;16219;42.864;23.360;2023-06-26T08:38:58;95600.66;;;25.23;100.00
29169;BME280;16219;42.864;23.360;2023-06-26T08:41:26;95595.97;;;25.27;100.00
29169;BME280;16219;42.864;23.360;2023-06-26T08:43:53;95580.41;;;25.11;100.00
29169;BME280;16219;42.864;23.360;2023-06-26T08:46:21;95596.47;;;25.18;100.00
29169;BME280;16219;42.864;23.360;2023-06-26T08:48:55;95600.72;;;25.19;100.00
29169;BME280;16219;42.864;23.360;2023-06-26T08:51:24;95594.69;;;25.08;100.00
29169;BME280;16219;42.864;23.360;2023-06-26T08:53:56;95589.63;;;25.13;100.00
29169;BME280;16219;42.864;23.360;2023-06-26T08:56:27;95596.03;;;25.47;100.00
29169;BME280;16219;42.864;23.360;2023-06-26T08:58:55;95594.09;;;25.47;100.00
29169;BME280;16219;42.864;23.360;2023-06-26T09:01:22;95598.84;;;25.39;100.00
29169;BME280;16219;42.864;23.360;2023-06-26T09:03:52;95590.44;;;25.34;100.00
29169;BME280;16219;42.864;23.360;2023-06-26T09:06:19;95583.59;;;25.29;100.00
29169;BME280;16219;42.864;23.360;2023-06-26T09:08:46;95582.00;;;25.32;100.00
29169;BME280;16219;42.864;23.360;2023-06-26T09:11:13;95580.34;;;25.38;100.00
29169;BME280;16219;42.864;23.360;2023-06-26T09:13:41;95582.03;;;25.52;100.00
29169;BME280;16219;42.864;23.360;2023-06-26T09:16:09;95582.28;;;26.04;100.00
29169;BME280;16219;42.864;23.360;2023-06-26T09:18:36;95581.38;;;26.51;100.00
29169;BME280;16219;42.864;23.360;2023-06-26T09:21:07;95579.50;;;26.48;93.68
29169;BME280;16219;42.864;23.360;2023-06-26T09:23:36;95577.97;;;26.07;96.18
29169;BME280;16219;42.864;23.360;2023-06-26T09:26:03;95568.91;;;25.74;100.00
29169;BME280;16219;42.864;23.360;2023-06-26T09:28:31;95577.44;;;25.72;100.00
29169;BME280;16219;42.864;23.360;2023-06-26T09:31:02;95580.47;;;25.54;100.00
29169;BME280;16219;42.864;23.360;2023-06-26T09:33:33;95572.84;;;25.49;100.00
29169;BME280;16219;42.864;23.360;2023-06-26T09:36:06;95560.97;;;25.43;100.00
29169;BME280;16219;42.864;23.360;2023-06-26T09:38:35;95579.34;;;25.52;100.00
29169;BME280;16219;42.864;23.360;2023-06-26T09:41:03;95582.41;;;25.54;100.00
29169;BME280;16219;42.864;23.360;2023-06-26T09:43:30;95582.53;;;25.47;100.00
29169;BME280;16219;42.864;23.360;2023-06-26T09:45:58;95586.50;;;25.38;100.00
29169;BME280;16219;42.864;23.360;2023-06-26T09:48:25;95579.22;;;25.12;100.00
29169;BME280;16219;42.864;23.360;2023-06-26T09:50:53;95581.00;;;24.95;100.00
29169;BME280;16219;42.864;23.360;2023-06-26T09:53:22;95585.06;;;24.80;100.00
29169;BME280;16219;42.864;23.360;2023-06-26T09:55:49;95586.75;;;24.70;100.00
29169;BME280;16219;42.864;23.360;2023-06-26T09:58:16;95585.38;;;24.58;100.00
29169;BME280;16219;42.864;23.360;2023-06-26T10:00:45;95578.75;;;24.63;100.00
29169;BME280;16219;42.864;23.360;2023-06-26T10:03:12;95582.78;;;24.78;100.00
29169;BME280;16219;42.864;23.360;2023-06-26T10:05:40;95586.63;;;24.81;100.00
29169;BME280;16219;42.864;23.360;2023-06-26T10:08:09;95592.38;;;24.83;100.00
29169;BME280;16219;42.864;23.360;2023-06-26T10:10:41;95597.13;;;24.44;100.00
29169;BME280;16219;42.864;23.360;2023-06-26T10:13:12;95601.28;;;24.15;100.00
29169;BME280;16219;42.864;23.360;2023-06-26T10:15:43;95593.97;;;23.81;100.00
29169;BME280;16219;42.864;23.360;2023-06-26T10:18:12;95599.50;;;23.67;100.00
29169;BME280;16219;42.864;23.360;2023-06-26T10:20:40;95607.31;;;23.51;100.00
29169;BME280;16219;42.864;23.360;2023-06-26T10:23:09;95602.94;;;23.19;100.00
29169;BME280;16219;42.864;23.360;2023-06-26T10:25:42;95596.16;;;23.04;100.00
29169;BME280;16219;42.864;23.360;2023-06-26T10:28:15;95597.75;;;22.94;100.00
29169;BME280;16219;42.864;23.360;2023-06-26T10:30:52;95597.78;;;22.83;100.00
29169;BME280;16219;42.864;23.360;2023-06-26T10:33:20;95585.53;;;22.79;100.00
29169;BME280;16219;42.864;23.360;2023-06-26T10:35:48;95584.81;;;22.67;100.00
29169;BME280;16219;42.864;23.360;2023-06-26T10:38:15;95589.50;;;22.56;100.00
29169;BME280;16219;42.864;23.360;2023-06-26T10:40:46;95589.88;;;22.55;100.00
29169;BME280;16219;42.864;23.360;2023-06-26T10:43:15;95586.09;;;22.49;100.00
29169;BME280;16219;42.864;23.360;2023-06-26T10:45:46;95586.50;;;22.43;100.00
29169;BME280;16219;42.864;23.360;2023-06-26T10:48:17;95584.56;;;22.48;100.00
29169;BME280;16219;42.864;23.360;2023-06-26T10:50:47;95582.56;;;22.59;100.00
29169;BME280;16219;42.864;23.360;2023-06-26T10:53:15;95572.13;;;22.71;100.00
29169;BME280;16219;42.864;23.360;2023-06-26T10:55:56;95570.91;;;22.80;100.00
29169;BME280;16219;42.864;23.360;2023-06-26T10:58:44;95573.41;;;23.12;100.00
29169;BME280;16219;42.864;23.360;2023-06-26T11:01:21;95565.88;;;23.41;100.00
29169;BME280;16219;42.864;23.360;2023-06-26T11:03:59;95571.81;;;23.63;100.00
29169;BME280;16219;42.864;23.360;2023-06-26T11:06:28;95570.88;;;23.80;100.00
29169;BME280;16219;42.864;23.360;2023-06-26T11:09:01;95554.28;;;23.85;100.00
29169;BME280;16219;42.864;23.360;2023-06-26T11:11:57;95550.78;;;23.88;100.00
29169;BME280;16219;42.864;23.360;2023-06-26T11:14:35;95552.59;;;23.99;100.00
29169;BME280;16219;42.864;23.360;2023-06-26T11:17:03;95550.31;;;24.28;100.00
29169;BME280;16219;42.864;23.360;2023-06-26T11:19:31;95547.44;;;24.73;100.00
29169;BME280;16219;42.864;23.360;2023-06-26T11:22:07;95548.41;;;25.09;100.00
29169;BME280;16219;42.864;23.360;2023-06-26T11:24:35;95558.03;;;25.34;100.00
29169;BME280;16219;42.864;23.360;2023-06-26T11:27:04;95555.69;;;25.36;100.00
29169;BME280;16219;42.864;23.360;2023-06-26T11:29:32;95552.16;;;25.62;100.00
29169;BME280;16219;42.864;23.360;2023-06-26T11:32:04;95554.06;;;26.25;100.00
29169;BME280;16219;42.864;23.360;2023-06-26T11:34:33;95559.16;;;26.39;100.00
29169;BME280;16219;42.864;23.360;2023-06-26T11:37:01;95556.03;;;26.41;96.73
29169;BME280;16219;42.864;23.360;2023-06-26T11:39:28;95556.00;;;26.45;100.00
29169;BME280;16219;42.864;23.360;2023-06-26T11:41:56;95552.25;;;26.38;100.00
29169;BME280;16219;42.864;23.360;2023-06-26T11:44:29;95534.59;;;26.14;100.00
29169;BME280;16219;42.864;23.360;2023-06-26T11:46:56;95548.50;;;26.32;99.12
29169;BME280;16219;42.864;23.360;2023-06-26T11:49:24;95555.59;;;26.62;100.00
29169;BME280;16219;42.864;23.360;2023-06-26T11:51:53;95551.84;;;26.76;100.00
29169;BME280;16219;42.864;23.360;2023-06-26T11:54:25;95543.22;;;26.81;98.27
29169;BME280;16219;42.864;23.360;2023-06-26T11:56:54;95545.72;;;27.05;98.99
29169;BME280;16219;42.864;23.360;2023-06-26T11:59:23;95536.09;;;27.04;100.00
29169;BME280;16219;42.864;23.360;2023-06-26T12:01:52;95553.84;;;27.05;100.00
29169;BME280;16219;42.864;23.360;2023-06-26T12:04:20;95552.50;;;26.80;96.61
29169;BME280;16219;42.864;23.360;2023-06-26T12:06:49;95555.84;;;26.52;96.88
29169;BME280;16219;42.864;23.360;2023-06-26T12:09:18;95557.03;;;26.51;99.85
29169;BME280;16219;42.864;23.360;2023-06-26T12:11:48;95546.34;;;26.43;99.02
29169;BME280;16219;42.864;23.360;2023-06-26T12:14:16;95552.56;;;26.60;100.00
29169;BME280;16219;42.864;23.360;2023-06-26T12:16:45;95551.75;;;26.43;99.76
29169;BME280;16219;42.864;23.360;2023-06-26T12:19:14;95553.75;;;26.39;98.60
29169;BME280;16219;42.864;23.360;2023-06-26T12:21:48;95550.22;;;26.79;100.00
29169;BME280;16219;42.864;23.360;2023-06-26T12:24:19;95540.44;;;27.17;100.00
29169;BME280;16219;42.864;23.360;2023-06-26T12:26:50;95534.53;;;27.52;96.63
29169;BME280;16219;42.864;23.360;2023-06-26T12:29:20;95545.97;;;27.43;85.99
29169;BME280;16219;42.864;23.360;2023-06-26T12:31:52;95535.66;;;27.05;83.45
29169;BME280;16219;42.864;23.360;2023-06-26T12:34:27;95552.34;;;27.04;89.22
29169;BME280;16219;42.864;23.360;2023-06-26T12:37:00;95553.69;;;26.96;100.00
29169;BME280;16219;42.864;23.360;2023-06-26T12:39:27;95552.69;;;26.89;100.00
29169;BME280;16219;42.864;23.360;2023-06-26T12:41:57;95551.81;;;26.92;100.00
29169;BME280;16219;42.864;23.360;2023-06-26T12:44:27;95550.50;;;27.17;99.80
29169;BME280;16219;42.864;23.360;2023-06-26T12:46:56;95550.31;;;27.08;100.00
29169;BME280;16219;42.864;23.360;2023-06-26T12:49:33;95552.69;;;27.38;95.13